createdAt,value
2019-02-11T00:03:27.110Z,5.65
2019-02-11T00:07:33.949Z,5.62
2019-02-11T00:11:40.837Z,5.57
2019-02-11T00:15:47.686Z,5.56
2019-02-11T00:19:54.582Z,5.40
2019-02-11T00:24:01.602Z,5.28
2019-02-11T00:28:08.388Z,5.21
2019-02-11T00:32:15.281Z,5.11
2019-02-11T00:36:22.368Z,5.15
2019-02-11T00:40:29.270Z,5.05
2019-02-11T00:44:36.645Z,5.10
2019-02-11T00:48:43.548Z,5.12
2019-02-11T00:52:50.398Z,5.08
2019-02-11T00:56:57.261Z,4.97
2019-02-11T01:01:04.163Z,4.96
2019-02-11T01:05:11.321Z,4.91
2019-02-11T01:09:18.150Z,4.87
2019-02-11T01:13:27.868Z,4.84
2019-02-11T01:17:33.521Z,4.84
2019-02-11T01:21:40.407Z,4.75
2019-02-11T01:25:47.217Z,4.75
2019-02-11T01:29:54.222Z,4.81
2019-02-11T01:34:01.128Z,4.71
2019-02-11T01:38:07.985Z,4.76
2019-02-11T01:42:14.848Z,4.69
2019-02-11T01:46:24.527Z,4.70
2019-02-11T01:50:31.643Z,4.60
2019-02-11T01:54:38.687Z,4.59
2019-02-11T01:58:45.496Z,4.65
2019-02-11T02:02:52.351Z,4.62
2019-02-11T02:06:59.249Z,4.56
2019-02-11T02:11:06.161Z,4.68
2019-02-11T02:15:13.957Z,4.60
2019-02-11T02:19:20.825Z,4.62
2019-02-11T02:23:27.737Z,4.65
2019-02-11T02:27:34.587Z,4.66
2019-02-11T02:31:41.391Z,4.56
2019-02-11T02:35:48.288Z,4.58
2019-02-11T02:39:55.222Z,4.56
2019-02-11T02:44:02.103Z,4.58
2019-02-11T02:48:08.977Z,4.47
2019-02-11T02:52:15.879Z,4.47
2019-02-11T02:56:22.754Z,4.59
2019-02-11T03:00:29.574Z,4.52
2019-02-11T03:04:36.399Z,4.45
2019-02-11T03:08:43.170Z,4.31
2019-02-11T03:12:50.014Z,4.40
2019-02-11T03:16:57.058Z,4.42
2019-02-11T03:21:03.905Z,4.43
2019-02-11T03:25:11.754Z,4.39
2019-02-11T03:29:18.610Z,4.32
2019-02-11T03:33:25.415Z,4.31
2019-02-11T03:37:33.066Z,4.35
2019-02-11T03:41:40.004Z,4.32
2019-02-11T03:45:46.821Z,4.30
2019-02-11T03:49:53.724Z,4.27
2019-02-11T03:54:00.570Z,4.26
2019-02-11T03:58:07.408Z,4.25
2019-02-11T04:02:14.467Z,4.31
2019-02-11T04:06:21.319Z,4.30
2019-02-11T04:10:28.287Z,4.36
2019-02-11T04:14:35.286Z,4.17
2019-02-11T04:18:42.076Z,4.38
2019-02-11T04:22:48.916Z,4.20
2019-02-11T04:26:55.834Z,4.30
2019-02-11T04:31:02.660Z,4.17
2019-02-11T04:35:09.616Z,4.20
2019-02-11T04:39:16.539Z,4.22
2019-02-11T04:43:23.358Z,4.26
2019-02-11T04:47:30.126Z,4.22
2019-02-11T04:51:36.985Z,4.29
2019-02-11T04:55:47.039Z,4.06
2019-02-11T04:59:54.921Z,4.19
2019-02-11T05:04:01.828Z,4.19
2019-02-11T05:08:08.636Z,4.06
2019-02-11T05:12:15.476Z,4.04
2019-02-11T05:16:22.349Z,4.13
2019-02-11T05:20:29.176Z,4.09
2019-02-11T05:24:35.996Z,4.02
2019-02-11T05:28:50.062Z,4.02
2019-02-11T05:32:56.901Z,4.15
2019-02-11T05:37:03.711Z,4.15
2019-02-11T05:41:10.476Z,4.18
2019-02-11T05:45:17.402Z,4.20
2019-02-11T05:49:24.223Z,4.27
2019-02-11T05:53:31.039Z,4.33
2019-02-11T05:57:37.924Z,4.40
2019-02-11T06:01:44.817Z,4.45
2019-02-11T06:05:51.979Z,4.46
2019-02-11T06:09:58.830Z,4.42
2019-02-11T06:14:05.802Z,4.47
2019-02-11T06:18:12.600Z,4.58
2019-02-11T06:22:20.429Z,4.71
2019-02-11T06:26:27.242Z,4.76
2019-02-11T06:30:34.131Z,4.73
2019-02-11T06:34:40.918Z,4.86
2019-02-11T06:38:47.794Z,4.94
2019-02-11T06:42:54.663Z,4.95
2019-02-11T06:47:01.509Z,4.86
2019-02-11T06:51:08.509Z,4.94
2019-02-11T06:55:16.463Z,4.88
2019-02-11T06:59:23.302Z,4.95
2019-02-11T07:03:30.201Z,4.98
2019-02-11T07:07:36.975Z,4.87
2019-02-11T07:11:43.783Z,4.99
2019-02-11T07:16:00.096Z,4.99
2019-02-11T07:20:08.311Z,5.05
2019-02-11T07:24:15.203Z,5.54
2019-02-11T07:28:23.448Z,5.23
2019-02-11T07:32:30.545Z,5.21
2019-02-11T07:36:37.510Z,5.31
2019-02-11T07:40:44.411Z,5.28
2019-02-11T07:44:54.793Z,5.32
2019-02-11T07:49:01.816Z,5.29
2019-02-11T07:53:08.749Z,5.21
2019-02-11T07:57:15.642Z,5.36
2019-02-11T08:01:22.590Z,5.35
2019-02-11T08:05:29.580Z,5.40
2019-02-11T08:09:36.546Z,5.46
2019-02-11T08:13:43.399Z,5.44
2019-02-11T08:17:50.356Z,5.37
2019-02-11T08:21:57.203Z,5.35
2019-02-11T08:26:04.107Z,5.52
2019-02-11T08:30:11.600Z,5.59
2019-02-11T08:34:18.626Z,5.69
2019-02-11T08:38:25.693Z,5.68
2019-02-11T08:42:32.805Z,5.79
2019-02-11T08:46:39.643Z,6.01
2019-02-11T08:50:46.533Z,5.83
2019-02-11T08:54:53.467Z,6.00
2019-02-11T08:59:00.447Z,6.01
2019-02-11T09:03:07.411Z,6.12
2019-02-11T09:07:14.347Z,6.03
2019-02-11T09:11:21.241Z,6.29
2019-02-11T09:15:28.161Z,6.18
2019-02-11T09:19:35.255Z,6.18
2019-02-11T09:23:42.118Z,6.39
2019-02-11T09:27:48.976Z,6.29
2019-02-11T09:31:55.865Z,6.32
2019-02-11T09:36:03.408Z,6.28
2019-02-11T09:40:12.648Z,6.53
2019-02-11T09:44:19.557Z,6.41
2019-02-11T09:48:26.382Z,6.91
2019-02-11T09:52:33.298Z,7.03
2019-02-11T09:56:40.714Z,7.66
2019-02-11T10:00:47.614Z,7.73
2019-02-11T10:04:54.659Z,7.69
2019-02-11T10:09:01.518Z,7.48
2019-02-11T10:13:10.095Z,7.76
2019-02-11T10:17:18.945Z,7.59
2019-02-11T10:21:25.839Z,8.33
2019-02-11T10:25:32.986Z,7.96
2019-02-11T10:29:40.181Z,7.86
2019-02-11T10:33:47.352Z,8.11
2019-02-11T10:37:54.575Z,7.91
2019-02-11T10:42:01.631Z,8.51
2019-02-11T10:46:08.848Z,7.96
2019-02-11T10:50:16.654Z,8.03
2019-02-11T10:54:24.099Z,7.56
2019-02-11T10:58:31.063Z,7.69
2019-02-11T11:02:37.949Z,7.55
2019-02-11T11:06:45.026Z,7.29
2019-02-11T11:10:52.057Z,7.51
2019-02-11T11:14:59.112Z,7.30
2019-02-11T11:19:06.530Z,7.05
2019-02-11T11:23:15.097Z,7.25
2019-02-11T11:27:23.545Z,7.02
2019-02-11T11:31:30.428Z,7.25
2019-02-11T11:35:37.507Z,7.52
2019-02-11T11:39:44.647Z,7.36
2019-02-11T11:43:51.652Z,7.36
2019-02-11T11:47:58.708Z,7.49
2019-02-11T11:52:06.768Z,7.32
2019-02-11T11:56:13.643Z,7.39
2019-02-11T12:00:24.303Z,7.54
2019-02-11T12:04:32.198Z,7.48
2019-02-11T12:08:39.186Z,7.40
2019-02-11T12:12:46.168Z,7.36
2019-02-11T12:16:57.695Z,7.24
2019-02-11T12:21:03.292Z,7.36
2019-02-11T12:25:12.451Z,7.24
2019-02-11T12:29:22.262Z,7.62
2019-02-11T12:33:29.159Z,7.34
2019-02-11T12:37:36.802Z,7.50
2019-02-11T12:41:43.844Z,7.50
2019-02-11T12:45:50.769Z,7.70
2019-02-11T12:49:58.620Z,7.77
2019-02-11T12:54:05.500Z,7.93
2019-02-11T12:58:12.354Z,8.55
2019-02-11T13:02:19.269Z,8.48
2019-02-11T13:06:26.285Z,9.59
2019-02-11T13:10:33.264Z,10.12
2019-02-11T13:14:40.327Z,9.27
2019-02-11T13:18:47.230Z,9.09
2019-02-11T13:22:54.080Z,8.70
2019-02-11T13:27:01.131Z,8.35
2019-02-11T13:31:08.043Z,8.38
2019-02-11T13:35:15.492Z,8.18
2019-02-11T13:39:22.513Z,8.03
2019-02-11T13:43:29.341Z,8.05
2019-02-11T13:47:51.901Z,7.96
2019-02-11T13:51:45.849Z,7.78
2019-02-11T13:55:52.966Z,7.54
2019-02-11T13:59:59.838Z,7.65
2019-02-11T14:04:06.889Z,7.67
2019-02-11T14:08:13.768Z,7.68
2019-02-11T14:12:22.229Z,7.75
2019-02-11T14:16:29.261Z,7.78
2019-02-11T14:20:36.233Z,7.66
2019-02-11T14:24:44.423Z,7.75
2019-02-11T14:28:51.245Z,7.80
2019-02-11T14:32:58.230Z,7.87
2019-02-11T14:37:05.262Z,7.65
2019-02-11T14:41:15.054Z,7.96
2019-02-11T14:45:23.019Z,7.89
2019-02-11T14:49:30.288Z,7.81
2019-02-11T14:53:37.453Z,7.95
2019-02-11T14:57:44.461Z,7.86
2019-02-11T15:01:51.370Z,7.75
2019-02-11T15:05:58.584Z,7.51
2019-02-11T15:10:05.880Z,7.49
2019-02-11T15:14:12.873Z,7.54
2019-02-11T15:18:19.874Z,7.52
2019-02-11T15:22:28.090Z,7.40
2019-02-11T15:26:38.335Z,7.26
2019-02-11T15:30:45.213Z,7.20
2019-02-11T15:34:52.178Z,7.14
2019-02-11T15:38:59.661Z,7.12
2019-02-11T15:43:06.550Z,7.13
2019-02-11T15:47:13.495Z,6.98
2019-02-11T15:51:22.477Z,6.89
2019-02-11T15:55:29.462Z,6.82
2019-02-11T15:59:36.499Z,6.74
2019-02-11T16:03:44.136Z,6.72
2019-02-11T16:07:52.396Z,6.61
2019-02-11T16:12:00.959Z,6.74
2019-02-11T16:16:08.857Z,6.66
2019-02-11T16:20:16.448Z,6.57
2019-02-11T16:24:25.130Z,6.36
2019-02-11T16:28:32.489Z,6.42
2019-02-11T16:32:39.861Z,6.35
2019-02-11T16:36:47.127Z,6.33
2019-02-11T16:40:54.340Z,6.34
2019-02-11T16:45:02.563Z,6.39
2019-02-11T16:49:11.526Z,6.30
2019-02-11T16:53:18.634Z,6.23
2019-02-11T16:57:25.487Z,6.24
2019-02-11T17:01:33.733Z,6.37
2019-02-11T17:05:40.910Z,6.18
2019-02-11T17:09:48.913Z,6.24
2019-02-11T17:13:56.235Z,6.10
2019-02-11T17:18:05.113Z,6.22
2019-02-11T17:22:12.282Z,6.15
2019-02-11T17:26:21.203Z,6.21
2019-02-11T17:30:30.623Z,6.16
2019-02-11T17:34:38.210Z,6.07
2019-02-11T17:38:45.631Z,6.10
2019-02-11T17:42:52.605Z,6.08
2019-02-11T17:46:59.483Z,6.16
2019-02-11T17:51:08.087Z,6.05
2019-02-11T17:55:20.618Z,6.12
2019-02-11T17:59:29.318Z,5.97
2019-02-11T18:03:36.504Z,5.97
2019-02-11T18:07:43.330Z,5.92
2019-02-11T18:11:50.259Z,5.83
2019-02-11T18:15:57.268Z,5.90
2019-02-11T18:20:04.359Z,5.90
2019-02-11T18:24:11.390Z,5.89
2019-02-11T18:28:18.318Z,5.99
2019-02-11T18:32:25.283Z,5.88
2019-02-11T18:36:35.133Z,5.88
2019-02-11T18:40:42.029Z,5.89
2019-02-11T18:44:48.924Z,5.93
2019-02-11T18:48:55.869Z,5.91
2019-02-11T18:53:02.751Z,5.86
2019-02-11T18:57:09.606Z,5.91
2019-02-11T19:01:16.450Z,5.96
2019-02-11T19:05:23.764Z,5.82
2019-02-11T19:09:30.795Z,5.76
2019-02-11T19:13:37.693Z,5.62
2019-02-11T19:17:44.722Z,5.59
2019-02-11T19:21:54.144Z,5.47
2019-02-11T19:26:01.188Z,5.45
2019-02-11T19:30:12.642Z,5.39
2019-02-11T19:34:22.514Z,5.37
2019-02-11T19:38:31.250Z,5.31
2019-02-11T19:42:38.190Z,5.23
2019-02-11T19:46:45.069Z,5.22
2019-02-11T19:50:52.014Z,5.18
2019-02-11T19:54:58.842Z,5.14
2019-02-11T19:59:05.981Z,5.05
2019-02-11T20:03:12.998Z,5.01
2019-02-11T20:07:19.921Z,4.98
2019-02-11T20:11:26.879Z,4.98
2019-02-11T20:15:33.922Z,4.96
2019-02-11T20:19:40.789Z,4.93
2019-02-11T20:23:47.609Z,4.93
2019-02-11T20:27:54.428Z,4.88
2019-02-11T20:32:01.353Z,4.90
2019-02-11T20:36:08.285Z,4.84
2019-02-11T20:40:19.764Z,4.84
2019-02-11T20:44:27.719Z,4.74
2019-02-11T20:48:34.515Z,4.74
2019-02-11T20:52:41.372Z,4.76
2019-02-11T20:56:48.243Z,4.74
2019-02-11T21:00:55.098Z,4.66
2019-02-11T21:05:02.009Z,4.63
2019-02-11T21:09:10.330Z,4.56
2019-02-11T21:13:17.444Z,4.54
2019-02-11T21:17:24.441Z,4.70
2019-02-11T21:21:31.377Z,4.81
2019-02-11T21:25:38.301Z,4.55
2019-02-11T21:29:45.806Z,4.54
2019-02-11T21:33:56.828Z,4.47
2019-02-11T21:38:04.060Z,4.39
2019-02-11T21:42:10.965Z,4.38
2019-02-11T21:46:17.865Z,4.32
2019-02-11T21:50:26.669Z,4.27
2019-02-11T21:54:34.354Z,4.19
2019-02-11T21:58:42.656Z,4.26
2019-02-11T22:02:49.610Z,4.23
2019-02-11T22:06:56.543Z,4.19
2019-02-11T22:11:03.437Z,4.16
2019-02-11T22:15:11.908Z,4.13
2019-02-11T22:19:18.698Z,4.09
2019-02-11T22:23:25.503Z,4.04
2019-02-11T22:27:32.247Z,4.02
2019-02-11T22:31:39.155Z,3.96
2019-02-11T22:35:46.198Z,3.94
2019-02-11T22:39:53.084Z,3.93
2019-02-11T22:44:00.003Z,3.94
2019-02-11T22:48:07.015Z,3.97
2019-02-11T22:52:13.914Z,3.94
2019-02-11T22:56:20.886Z,3.99
2019-02-11T23:00:44.228Z,3.99
2019-02-11T23:04:51.604Z,4.02
2019-02-11T23:08:58.477Z,3.96
2019-02-11T23:13:05.406Z,3.85
2019-02-11T23:17:12.267Z,3.87
2019-02-11T23:21:19.151Z,3.78
2019-02-11T23:25:26.921Z,3.75
2019-02-11T23:29:34.387Z,3.72
2019-02-11T23:33:41.208Z,3.70
2019-02-11T23:37:48.023Z,3.59
2019-02-11T23:41:54.845Z,3.46
2019-02-11T23:46:01.753Z,3.41
2019-02-11T23:50:08.682Z,3.41
2019-02-11T23:54:15.507Z,3.37
2019-02-11T23:58:22.763Z,3.34
